createdAt,value
2018-06-22T00:01:55.748Z,23.53
2018-06-22T00:04:25.929Z,24.03
2018-06-22T00:06:55.884Z,22.13
2018-06-22T00:09:25.775Z,24.33
2018-06-22T00:11:56.083Z,23.40
2018-06-22T00:14:26.147Z,23.37
2018-06-22T00:16:57.404Z,27.37
2018-06-22T00:19:27.461Z,24.50
2018-06-22T00:24:37.556Z,26.07
2018-06-22T00:27:07.776Z,25.87
2018-06-22T00:29:38.060Z,26.90
2018-06-22T00:32:08.076Z,28.33
2018-06-22T00:34:38.357Z,28.90
2018-06-22T00:37:09.429Z,34.40
2018-06-22T00:39:39.462Z,25.77
2018-06-22T00:42:09.465Z,23.80
2018-06-22T00:44:39.648Z,27.27
2018-06-22T00:47:09.501Z,23.83
2018-06-22T00:49:39.587Z,24.57
2018-06-22T00:52:09.856Z,24.53
2018-06-22T00:54:39.859Z,22.80
2018-06-22T00:57:09.799Z,22.93
2018-06-22T00:59:39.673Z,21.23
2018-06-22T01:02:09.875Z,23.70
2018-06-22T01:04:40.125Z,22.73
2018-06-22T01:07:10.103Z,24.07
2018-06-22T01:09:40.249Z,25.10
2018-06-22T01:12:10.255Z,24.57
2018-06-22T01:14:40.556Z,27.00
2018-06-22T01:17:10.660Z,26.47
2018-06-22T01:19:41.033Z,27.47
2018-06-22T01:22:11.310Z,25.77
2018-06-22T01:24:41.544Z,29.40
2018-06-22T01:27:11.436Z,26.13
2018-06-22T01:29:41.423Z,25.17
2018-06-22T01:32:11.400Z,29.37
2018-06-22T01:34:41.457Z,29.13
2018-06-22T01:37:11.589Z,26.53
2018-06-22T01:39:42.019Z,22.90
2018-06-22T01:42:12.050Z,22.13
2018-06-22T01:44:41.938Z,25.63
2018-06-22T01:47:11.974Z,47.93
2018-06-22T01:49:41.903Z,51.83
2018-06-22T01:52:11.880Z,60.80
2018-06-22T01:54:41.856Z,61.93
2018-06-22T01:57:12.321Z,77.47
2018-06-22T01:59:42.506Z,65.40
2018-06-22T02:02:12.685Z,52.23
2018-06-22T02:04:42.795Z,58.80
2018-06-22T02:07:13.125Z,66.47
2018-06-22T02:09:43.580Z,65.83
2018-06-22T02:12:13.554Z,81.40
2018-06-22T02:14:46.269Z,117.20
2018-06-22T02:17:16.691Z,147.17
2018-06-22T02:19:46.806Z,167.73
2018-06-22T02:22:16.848Z,151.13
2018-06-22T02:24:46.869Z,108.00
2018-06-22T02:27:16.896Z,63.07
2018-06-22T02:29:46.969Z,47.93
2018-06-22T02:32:16.905Z,41.97
2018-06-22T02:34:46.881Z,60.67
2018-06-22T02:37:16.824Z,48.17
2018-06-22T02:39:46.842Z,59.47
2018-06-22T02:42:16.935Z,49.80
2018-06-22T02:44:46.961Z,61.63
2018-06-22T02:47:17.568Z,72.00
2018-06-22T02:49:47.472Z,68.90
2018-06-22T02:52:17.769Z,59.30
2018-06-22T02:54:48.856Z,50.93
2018-06-22T02:57:18.895Z,63.10
2018-06-22T02:59:49.270Z,58.33
2018-06-22T03:02:19.436Z,64.77
2018-06-22T03:04:49.420Z,65.03
2018-06-22T03:07:19.657Z,61.70
2018-06-22T03:09:49.572Z,62.57
2018-06-22T03:12:19.789Z,64.73
2018-06-22T03:14:50.338Z,63.63
2018-06-22T03:17:20.428Z,70.43
2018-06-22T03:19:50.401Z,71.13
2018-06-22T03:22:20.425Z,68.60
2018-06-22T03:24:50.370Z,80.43
2018-06-22T03:27:20.385Z,77.57
2018-06-22T03:29:50.361Z,79.03
2018-06-22T03:32:20.349Z,79.33
2018-06-22T03:34:50.820Z,75.67
2018-06-22T03:37:21.107Z,67.50
2018-06-22T03:39:51.045Z,87.50
2018-06-22T03:42:20.968Z,55.73
2018-06-22T03:44:51.132Z,66.53
2018-06-22T03:47:21.488Z,103.37
2018-06-22T03:49:51.432Z,107.67
2018-06-22T03:52:21.467Z,110.33
2018-06-22T03:54:51.397Z,103.17
2018-06-22T03:57:22.411Z,96.23
2018-06-22T03:59:52.445Z,100.73
2018-06-22T04:02:22.679Z,100.57
2018-06-22T04:04:52.575Z,87.00
2018-06-22T04:07:22.653Z,80.93
2018-06-22T04:09:52.579Z,82.10
2018-06-22T04:12:22.995Z,76.37
2018-06-22T04:14:53.152Z,69.07
2018-06-22T04:17:23.681Z,68.80
2018-06-22T04:19:54.017Z,64.60
2018-06-22T04:22:24.469Z,64.33
2018-06-22T04:24:54.356Z,63.10
2018-06-22T04:27:24.326Z,72.20
2018-06-22T04:29:54.254Z,60.77
2018-06-22T04:32:24.325Z,58.13
2018-06-22T04:34:54.671Z,52.43
2018-06-22T04:37:24.628Z,51.47
2018-06-22T04:39:54.700Z,45.10
2018-06-22T04:42:24.720Z,43.47
2018-06-22T04:44:54.777Z,47.20
2018-06-22T04:47:24.801Z,42.10
2018-06-22T04:49:54.668Z,42.93
2018-06-22T04:52:24.584Z,37.57
2018-06-22T04:54:54.850Z,41.63
2018-06-22T04:57:25.166Z,34.37
2018-06-22T04:59:55.112Z,32.20
2018-06-22T05:02:25.311Z,29.27
2018-06-22T05:04:55.416Z,32.43
2018-06-22T05:07:25.671Z,27.37
2018-06-22T05:09:55.726Z,29.43
2018-06-22T05:12:26.021Z,26.60
2018-06-22T05:14:56.591Z,25.60
2018-06-22T05:17:26.867Z,28.07
2018-06-22T05:19:57.217Z,25.67
2018-06-22T05:22:27.368Z,23.60
2018-06-22T05:24:57.679Z,23.90
2018-06-22T05:27:27.602Z,21.50
2018-06-22T05:29:57.540Z,24.43
2018-06-22T05:32:27.534Z,26.80
2018-06-22T05:34:57.540Z,23.47
2018-06-22T05:37:27.485Z,22.57
2018-06-22T05:39:57.332Z,20.97
2018-06-22T05:42:27.754Z,21.80
2018-06-22T05:44:58.105Z,22.63
2018-06-22T05:47:28.334Z,24.07
2018-06-22T05:49:58.680Z,21.20
2018-06-22T05:52:28.859Z,29.07
2018-06-22T05:54:58.793Z,21.97
2018-06-22T05:57:29.099Z,24.80
2018-06-22T05:59:59.073Z,22.27
2018-06-22T06:02:29.448Z,21.00
2018-06-22T06:04:59.721Z,20.40
2018-06-22T06:07:29.644Z,21.23
2018-06-22T06:10:00.192Z,21.03
2018-06-22T06:12:30.470Z,21.23
2018-06-22T06:15:00.993Z,19.10
2018-06-22T06:17:31.002Z,18.90
2018-06-22T06:20:01.300Z,22.17
2018-06-22T06:22:31.647Z,21.43
2018-06-22T06:25:01.792Z,19.00
2018-06-22T06:27:32.016Z,17.77
2018-06-22T06:30:02.471Z,18.47
2018-06-22T06:32:32.401Z,19.80
2018-06-22T06:35:02.524Z,23.17
2018-06-22T06:37:32.563Z,19.13
2018-06-22T06:40:03.064Z,25.03
2018-06-22T06:42:33.049Z,15.90
2018-06-22T06:45:03.376Z,16.00
2018-06-22T06:47:33.688Z,17.93
2018-06-22T06:50:04.069Z,24.27
2018-06-22T06:52:34.305Z,14.37
2018-06-22T06:55:04.711Z,14.73
2018-06-22T06:57:34.912Z,13.67
2018-06-22T07:00:05.045Z,14.97
2018-06-22T07:02:35.294Z,16.47
2018-06-22T07:05:05.341Z,11.70
2018-06-22T07:07:35.643Z,15.47
2018-06-22T07:10:06.388Z,12.13
2018-06-22T07:12:36.441Z,16.27
2018-06-22T07:15:06.448Z,15.03
2018-06-22T07:17:36.692Z,10.90
2018-06-22T07:20:06.879Z,14.50
2018-06-22T07:22:37.153Z,14.57
2018-06-22T07:25:07.485Z,17.03
2018-06-22T07:27:37.339Z,21.87
2018-06-22T07:30:07.337Z,28.23
2018-06-22T07:32:37.292Z,16.50
2018-06-22T07:35:07.276Z,21.97
2018-06-22T07:37:37.280Z,22.43
2018-06-22T07:40:07.276Z,18.83
2018-06-22T07:42:37.409Z,19.23
2018-06-22T07:45:07.525Z,20.07
2018-06-22T07:47:37.784Z,17.60
2018-06-22T07:50:08.099Z,15.80
2018-06-22T07:52:38.096Z,16.80
2018-06-22T07:55:08.185Z,17.30
2018-06-22T07:57:38.117Z,15.77
2018-06-22T08:00:08.415Z,13.77
2018-06-22T08:02:38.698Z,14.53
2018-06-22T08:05:09.680Z,14.33
2018-06-22T08:07:40.046Z,12.77
2018-06-22T08:10:10.304Z,10.77
2018-06-22T08:12:40.267Z,15.43
2018-06-22T08:15:10.364Z,11.93
2018-06-22T08:17:40.823Z,9.90
2018-06-22T08:20:10.916Z,10.63
2018-06-22T08:22:41.253Z,11.87
2018-06-22T08:25:11.693Z,9.00
2018-06-22T08:27:41.772Z,12.43
2018-06-22T08:30:11.763Z,11.53
2018-06-22T08:32:42.047Z,9.40
2018-06-22T08:35:12.261Z,16.43
2018-06-22T08:37:42.311Z,9.30
2018-06-22T08:40:12.299Z,10.30
2018-06-22T08:42:42.420Z,8.40
2018-06-22T08:45:12.690Z,9.00
2018-06-22T08:47:43.065Z,10.90
2018-06-22T08:50:13.112Z,9.90
2018-06-22T08:52:43.068Z,10.27
2018-06-22T08:55:12.973Z,7.67
2018-06-22T08:57:43.064Z,10.13
2018-06-22T09:00:13.003Z,7.57
2018-06-22T09:02:43.459Z,10.03
2018-06-22T09:05:13.460Z,9.27
2018-06-22T09:07:43.617Z,10.67
2018-06-22T09:10:14.182Z,11.43
2018-06-22T09:12:44.221Z,8.63
2018-06-22T09:15:14.753Z,12.40
2018-06-22T09:17:45.069Z,10.70
2018-06-22T09:20:15.109Z,12.80
2018-06-22T09:22:45.065Z,12.10
2018-06-22T09:25:15.109Z,9.23
2018-06-22T09:27:45.193Z,14.83
2018-06-22T09:30:15.398Z,12.63
2018-06-22T09:32:45.565Z,12.73
2018-06-22T09:35:15.907Z,9.90
2018-06-22T09:37:45.892Z,10.10
2018-06-22T09:40:15.960Z,12.80
2018-06-22T09:42:46.263Z,10.80
2018-06-22T09:45:16.605Z,11.97
2018-06-22T09:47:46.592Z,9.87
2018-06-22T09:50:16.503Z,10.53
2018-06-22T09:52:46.399Z,7.87
2018-06-22T09:55:16.440Z,10.17
2018-06-22T09:57:46.700Z,13.67
2018-06-22T10:00:18.380Z,11.20
2018-06-22T10:02:49.481Z,11.13
2018-06-22T10:05:20.013Z,9.60
2018-06-22T10:07:50.011Z,9.37
2018-06-22T10:10:20.065Z,9.63
2018-06-22T10:12:50.400Z,8.57
2018-06-22T10:15:20.918Z,9.83
2018-06-22T10:17:50.829Z,10.93
2018-06-22T10:20:21.039Z,14.00
2018-06-22T10:22:51.392Z,13.63
2018-06-22T10:25:21.766Z,10.20
2018-06-22T10:27:52.040Z,11.50
2018-06-22T10:30:22.407Z,11.87
2018-06-22T10:32:52.316Z,13.97
2018-06-22T10:35:22.889Z,8.90
2018-06-22T10:37:52.897Z,9.40
2018-06-22T10:40:23.220Z,11.70
2018-06-22T10:42:53.166Z,13.93
2018-06-22T10:45:23.244Z,10.13
2018-06-22T10:47:53.230Z,13.70
2018-06-22T10:50:23.468Z,13.37
2018-06-22T10:52:53.647Z,8.20
2018-06-22T10:55:24.114Z,15.17
2018-06-22T10:57:54.602Z,10.63
2018-06-22T11:00:26.262Z,11.23
2018-06-22T11:02:56.655Z,9.47
2018-06-22T11:05:26.730Z,8.83
2018-06-22T11:07:56.955Z,13.33
2018-06-22T11:10:27.028Z,12.23
2018-06-22T11:12:57.007Z,14.30
2018-06-22T11:15:27.324Z,11.07
2018-06-22T11:17:57.692Z,8.70
2018-06-22T11:20:28.057Z,8.43
2018-06-22T11:22:58.379Z,7.90
2018-06-22T11:25:28.878Z,9.80
2018-06-22T11:27:59.136Z,11.90
2018-06-22T11:30:29.135Z,13.60
2018-06-22T11:32:59.443Z,13.83
2018-06-22T11:35:29.428Z,13.17
2018-06-22T11:37:59.465Z,10.53
2018-06-22T11:40:29.567Z,12.00
2018-06-22T11:42:59.510Z,9.97
2018-06-22T11:45:29.524Z,12.53
2018-06-22T11:47:59.732Z,12.63
2018-06-22T11:50:29.789Z,12.73
2018-06-22T11:53:00.301Z,11.07
2018-06-22T11:55:30.625Z,14.63
2018-06-22T11:58:00.653Z,16.03
2018-06-22T12:00:30.664Z,9.70
2018-06-22T12:03:01.005Z,12.27
2018-06-22T12:05:31.427Z,9.47
2018-06-22T12:08:01.405Z,12.70
2018-06-22T12:10:31.484Z,12.23
2018-06-22T12:13:01.602Z,13.30
2018-06-22T12:15:31.691Z,11.33
2018-06-22T12:18:02.340Z,12.47
2018-06-22T12:20:32.683Z,10.50
2018-06-22T12:23:03.008Z,12.33
2018-06-22T12:25:33.224Z,12.63
2018-06-22T12:28:03.583Z,10.57
2018-06-22T12:30:33.545Z,17.57
2018-06-22T12:33:03.555Z,13.60
2018-06-22T12:35:33.589Z,14.87
2018-06-22T12:38:03.840Z,13.60
2018-06-22T12:40:33.751Z,16.53
2018-06-22T12:43:03.739Z,14.63
2018-06-22T12:45:34.037Z,15.07
2018-06-22T12:48:04.114Z,16.30
2018-06-22T12:50:34.694Z,13.30
2018-06-22T12:53:04.961Z,17.83
2018-06-22T12:55:34.863Z,15.07
2018-06-22T12:58:05.407Z,19.10
2018-06-22T13:00:35.423Z,14.87
2018-06-22T13:03:05.601Z,15.57
2018-06-22T13:05:35.584Z,14.07
2018-06-22T13:08:05.825Z,17.77
2018-06-22T13:10:36.289Z,15.00
2018-06-22T13:13:06.940Z,12.57
2018-06-22T13:15:36.939Z,11.90
2018-06-22T13:18:07.095Z,11.53
2018-06-22T13:20:37.559Z,11.87
2018-06-22T13:23:07.921Z,9.67
2018-06-22T13:25:37.953Z,7.40
2018-06-22T13:28:08.117Z,9.57
2018-06-22T13:30:38.085Z,7.93
2018-06-22T13:33:08.134Z,8.77
2018-06-22T13:35:38.236Z,9.40
2018-06-22T13:38:08.191Z,7.10
2018-06-22T13:40:38.290Z,10.03
2018-06-22T13:43:08.268Z,11.60
2018-06-22T13:45:38.294Z,10.47
2018-06-22T13:48:08.764Z,8.47
2018-06-22T13:50:39.375Z,9.00
2018-06-22T13:53:09.536Z,10.83
2018-06-22T13:55:39.504Z,11.70
2018-06-22T13:58:09.488Z,7.90
2018-06-22T14:00:39.447Z,9.70
2018-06-22T14:03:09.413Z,7.10
2018-06-22T14:05:44.345Z,6.00
2018-06-22T14:08:14.477Z,7.63
2018-06-22T14:10:44.546Z,9.23
2018-06-22T14:13:15.018Z,9.00
2018-06-22T14:15:45.108Z,9.37
2018-06-22T14:18:15.129Z,6.67
2018-06-22T14:20:45.096Z,8.00
2018-06-22T14:23:15.138Z,8.53
2018-06-22T14:25:45.341Z,13.10
2018-06-22T14:28:15.385Z,7.67
2018-06-22T14:30:45.795Z,16.87
2018-06-22T14:33:15.802Z,15.77
2018-06-22T14:35:45.893Z,14.97
2018-06-22T14:38:16.223Z,13.00
2018-06-22T14:40:46.213Z,10.93
2018-06-22T14:43:16.217Z,16.60
2018-06-22T14:45:47.224Z,12.87
2018-06-22T14:48:17.213Z,11.83
2018-06-22T14:50:47.612Z,12.63
2018-06-22T14:53:22.665Z,15.03
2018-06-22T14:55:58.229Z,11.93
2018-06-22T14:58:33.222Z,11.27
2018-06-22T15:01:08.341Z,11.23
2018-06-22T15:03:43.357Z,13.63
2018-06-22T15:06:18.531Z,15.40
2018-06-22T15:08:48.587Z,11.90
2018-06-22T15:11:18.625Z,11.20
2018-06-22T15:13:49.759Z,10.13
2018-06-22T15:16:20.177Z,11.50
2018-06-22T15:18:50.190Z,10.93
2018-06-22T15:21:20.276Z,11.97
2018-06-22T15:23:50.290Z,13.30
2018-06-22T15:26:20.273Z,9.43
2018-06-22T15:28:50.496Z,10.40
2018-06-22T15:31:20.472Z,10.80
2018-06-22T15:33:55.483Z,11.03
2018-06-22T15:36:30.727Z,11.73
2018-06-22T15:39:06.191Z,10.47
2018-06-22T15:41:41.187Z,10.37
2018-06-22T15:44:16.227Z,14.50
2018-06-22T15:46:51.333Z,18.17
2018-06-22T15:51:28.336Z,9.43
2018-06-22T15:54:03.394Z,15.03
2018-06-22T15:56:33.448Z,13.67
2018-06-22T15:59:03.760Z,8.73
2018-06-22T16:01:33.727Z,12.97
2018-06-22T16:04:07.762Z,12.53
2018-06-22T16:06:38.137Z,9.90
2018-06-22T16:09:09.459Z,12.57
2018-06-22T16:11:39.428Z,11.60
2018-06-22T16:14:14.605Z,12.23
2018-06-22T16:16:49.541Z,13.27
2018-06-22T16:19:24.659Z,10.67
2018-06-22T16:21:59.774Z,19.77
2018-06-22T16:26:42.032Z,11.53
2018-06-22T16:29:12.271Z,11.13
2018-06-22T16:31:42.574Z,14.67
2018-06-22T16:34:12.865Z,12.70
2018-06-22T16:36:43.078Z,15.70
2018-06-22T16:39:14.100Z,20.63
2018-06-22T16:41:45.061Z,18.77
2018-06-22T16:44:15.060Z,19.03
2018-06-22T16:46:45.115Z,14.47
2018-06-22T16:49:15.275Z,18.40
2018-06-22T16:51:45.527Z,14.53
2018-06-22T16:54:15.526Z,14.53
2018-06-22T16:56:45.804Z,18.83
2018-06-22T16:59:15.720Z,18.80
2018-06-22T17:01:45.725Z,15.77
2018-06-22T17:04:16.221Z,17.77
2018-06-22T17:06:51.231Z,25.17
2018-06-22T17:09:26.144Z,16.07
2018-06-22T17:12:01.348Z,17.60
2018-06-22T17:14:36.333Z,16.03
2018-06-22T17:17:11.301Z,19.87
2018-06-22T17:19:41.319Z,21.23
2018-06-22T17:22:11.390Z,17.10
2018-06-22T17:24:41.311Z,18.67
2018-06-22T17:27:11.250Z,18.53
2018-06-22T17:29:41.169Z,21.73
2018-06-22T17:32:11.026Z,19.93
2018-06-22T17:34:40.904Z,20.20
2018-06-22T17:37:10.934Z,20.47
2018-06-22T17:39:40.976Z,21.53
2018-06-22T17:42:10.892Z,20.53
2018-06-22T17:44:41.008Z,24.50
2018-06-22T17:47:11.167Z,20.57
2018-06-22T17:49:41.267Z,23.83
2018-06-22T17:52:11.334Z,21.63
2018-06-22T17:54:41.235Z,21.80
2018-06-22T17:57:11.111Z,24.60
2018-06-22T17:59:46.088Z,26.33
2018-06-22T18:02:21.190Z,23.03
2018-06-22T18:04:56.151Z,23.70
2018-06-22T18:07:31.315Z,22.40
2018-06-22T18:10:06.427Z,39.93
2018-06-22T18:12:41.958Z,24.17
2018-06-22T18:15:12.060Z,27.70
2018-06-22T18:17:42.387Z,25.10
2018-06-22T18:20:12.540Z,24.00
2018-06-22T18:22:42.823Z,25.80
2018-06-22T18:25:13.414Z,26.60
2018-06-22T18:27:43.611Z,26.70
2018-06-22T18:30:15.659Z,28.53
2018-06-22T18:32:45.965Z,24.33
2018-06-22T18:35:16.581Z,26.07
2018-06-22T18:37:46.708Z,25.27
2018-06-22T18:40:16.871Z,27.37
2018-06-22T18:42:46.818Z,24.63
2018-06-22T18:45:16.937Z,24.23
2018-06-22T18:47:46.907Z,31.53
2018-06-22T18:50:17.345Z,25.33
2018-06-22T18:52:52.500Z,25.30
2018-06-22T18:55:27.622Z,25.70
2018-06-22T18:58:02.725Z,26.17
2018-06-22T19:00:37.807Z,26.83
2018-06-22T19:03:12.913Z,25.27
2018-06-22T19:05:43.006Z,29.87
2018-06-22T19:08:13.080Z,29.40
2018-06-22T19:10:43.037Z,25.53
2018-06-22T19:13:13.437Z,20.57
2018-06-22T19:15:43.777Z,13.00
2018-06-22T19:18:13.892Z,13.10
2018-06-22T19:20:44.094Z,14.47
2018-06-22T19:23:14.299Z,10.47
2018-06-22T19:25:44.433Z,13.23
2018-06-22T19:28:14.404Z,12.87
2018-06-22T19:30:44.456Z,13.10
2018-06-22T19:33:14.458Z,11.93
2018-06-22T19:35:44.429Z,11.43
2018-06-22T19:38:14.902Z,13.03
2018-06-22T19:40:45.074Z,13.27
2018-06-22T19:43:20.212Z,11.40
2018-06-22T19:45:55.382Z,14.43
2018-06-22T19:48:29.817Z,17.67
2018-06-22T19:51:04.809Z,19.13
2018-06-22T19:53:39.932Z,19.50
2018-06-22T19:56:10.163Z,21.47
2018-06-22T19:58:40.118Z,21.60
2018-06-22T20:01:10.135Z,23.03
2018-06-22T20:03:40.116Z,23.30
2018-06-22T20:06:10.094Z,21.90
2018-06-22T20:08:40.098Z,20.77
2018-06-22T20:11:10.880Z,20.90
2018-06-22T20:13:42.727Z,20.17
2018-06-22T20:16:12.571Z,19.90
2018-06-22T20:18:42.652Z,17.97
2018-06-22T20:21:13.088Z,20.60
2018-06-22T20:23:43.241Z,18.83
2018-06-22T20:26:13.297Z,18.60
2018-06-22T20:28:43.329Z,16.67
2018-06-22T20:31:18.622Z,16.47
2018-06-22T20:33:48.521Z,17.13
2018-06-22T20:36:23.639Z,16.63
2018-06-22T20:38:58.577Z,16.47
2018-06-22T20:41:33.720Z,14.50
2018-06-22T20:44:08.629Z,15.20
2018-06-22T20:46:43.992Z,17.57
2018-06-22T20:49:19.065Z,18.37
2018-06-22T20:51:49.214Z,14.77
2018-06-22T20:54:19.415Z,18.53
2018-06-22T20:56:49.388Z,16.00
2018-06-22T20:59:19.709Z,15.97
2018-06-22T21:01:49.769Z,20.90
2018-06-22T21:04:19.707Z,20.00
2018-06-22T21:06:49.760Z,19.20
2018-06-22T21:09:20.076Z,19.10
2018-06-22T21:11:50.197Z,18.67
2018-06-22T21:14:20.105Z,19.40
2018-06-22T21:16:50.068Z,19.13
2018-06-22T21:19:20.157Z,19.87
2018-06-22T21:21:55.631Z,19.30
2018-06-22T21:24:25.697Z,20.03
2018-06-22T21:26:59.928Z,21.70
2018-06-22T21:29:34.876Z,17.00
2018-06-22T21:32:09.757Z,17.77
2018-06-22T21:34:45.097Z,15.23
2018-06-22T21:37:20.074Z,16.87
2018-06-22T21:39:50.381Z,19.87
2018-06-22T21:42:20.836Z,15.77
2018-06-22T21:44:51.123Z,15.60
2018-06-22T21:47:21.148Z,14.77
2018-06-22T21:49:51.201Z,19.73
2018-06-22T21:52:21.646Z,16.37
2018-06-22T21:54:51.746Z,12.93
2018-06-22T21:57:21.685Z,12.03
2018-06-22T21:59:52.433Z,13.30
2018-06-22T22:02:22.444Z,13.90
2018-06-22T22:04:52.457Z,13.90
2018-06-22T22:07:22.512Z,16.70
2018-06-22T22:09:52.808Z,13.43
2018-06-22T22:12:22.826Z,14.37
2018-06-22T22:14:52.759Z,13.63
2018-06-22T22:17:22.993Z,14.37
2018-06-22T22:19:53.375Z,12.17
2018-06-22T22:22:23.478Z,10.97
2018-06-22T22:24:53.444Z,11.47
2018-06-22T22:27:24.119Z,10.43
2018-06-22T22:29:54.161Z,12.57
2018-06-22T22:32:24.096Z,11.60
2018-06-22T22:34:54.028Z,10.57
2018-06-22T22:37:23.897Z,11.37
2018-06-22T22:39:54.033Z,10.63
2018-06-22T22:42:23.959Z,10.40
2018-06-22T22:44:54.952Z,10.97
2018-06-22T22:47:24.965Z,13.10
2018-06-22T22:49:55.323Z,13.43
2018-06-22T22:52:25.546Z,14.27
2018-06-22T22:54:55.942Z,18.07
2018-06-22T22:57:26.382Z,17.97
2018-06-22T22:59:56.838Z,18.97
2018-06-22T23:02:27.079Z,18.17
2018-06-22T23:04:57.123Z,18.17
2018-06-22T23:07:27.151Z,18.33
2018-06-22T23:09:57.130Z,17.43
2018-06-22T23:12:27.497Z,17.00
2018-06-22T23:14:57.917Z,15.93
2018-06-22T23:17:28.269Z,17.00
2018-06-22T23:19:58.312Z,19.33
2018-06-22T23:22:39.162Z,16.73
2018-06-22T23:25:09.232Z,15.57
2018-06-22T23:27:39.448Z,15.83
2018-06-22T23:30:09.729Z,16.30
2018-06-22T23:32:40.472Z,16.27
2018-06-22T23:35:10.457Z,18.07
2018-06-22T23:37:40.707Z,14.20
2018-06-22T23:40:10.804Z,13.30
2018-06-22T23:42:40.819Z,13.83
2018-06-22T23:45:10.812Z,17.40
2018-06-22T23:47:41.037Z,13.80
2018-06-22T23:50:11.504Z,11.10
2018-06-22T23:52:41.446Z,9.90
2018-06-22T23:55:11.648Z,10.00
2018-06-22T23:57:42.249Z,8.97
